Time;durP1;ratioP1;P1;durP2;ratioP2;P2;SDS_P1;SDS_P2;PMS_P1;PMS_P2;Temp;Humidity;BMP_temperature;BMP_pressure;BME280_temperature;BME280_humidity;BME280_pressure;Samples;Min_cycle;Max_cycle;Signal;HPM_P1;HPM_P2
2022/11/24 00:01:20;;;;;;;16.40;6.97;;;;;;;5.31;57.68;100145.16;5011216;28;20045;-69
2022/11/24 00:03:59;;;;;;;8.98;6.28;;;;;;;5.81;55.76;100140.97;4988660;28;20029;-69
2022/11/24 00:06:25;;;;;;;19.00;6.78;;;;;;;5.58;56.57;100133.94;4991808;28;20050;-69
2022/11/24 00:08:52;;;;;;;14.82;7.00;;;;;;;5.85;55.51;100136.56;4990344;28;20045;-70
2022/11/24 00:11:21;;;;;;;14.18;7.15;;;;;;;5.70;56.55;100137.03;5010887;28;20042;-69
2022/11/24 00:13:47;;;;;;;14.55;7.07;;;;;;;5.73;56.07;100134.38;5006506;28;20580;-70
2022/11/24 00:16:18;;;;;;;11.32;7.20;;;;;;;5.66;56.32;100131.97;5005549;28;20046;-69
2022/11/24 00:18:46;;;;;;;8.63;4.80;;;;;;;5.63;55.56;100144.16;5007886;28;20045;-69
2022/11/24 00:21:13;;;;;;;15.50;6.72;;;;;;;5.60;55.34;100136.50;5002855;28;20585;-69
2022/11/24 00:23:38;;;;;;;13.40;7.40;;;;;;;5.42;55.69;100141.34;4993196;28;20033;-71
2022/11/24 00:26:09;;;;;;;12.60;7.32;;;;;;;5.44;56.01;100154.25;5006857;28;20119;-71
2022/11/24 00:28:35;;;;;;;22.20;7.20;;;;;;;5.47;56.28;100156.75;5007324;28;20052;-71
2022/11/24 00:31:01;;;;;;;16.02;7.40;;;;;;;5.45;56.70;100153.34;4987451;28;20133;-71
2022/11/24 00:33:27;;;;;;;11.88;6.45;;;;;;;5.61;56.01;100158.91;5007811;28;20045;-71
2022/11/24 00:35:59;;;;;;;22.10;8.02;;;;;;;5.43;56.89;100157.72;4987220;28;20360;-71
2022/11/24 00:38:27;;;;;;;11.48;6.63;;;;;;;5.28;57.42;100168.53;5006850;28;20076;-71
2022/11/24 00:40:53;;;;;;;13.82;7.35;;;;;;;5.56;56.52;100166.81;4993778;28;20111;-71
2022/11/24 00:43:18;;;;;;;12.77;7.03;;;;;;;5.57;56.26;100167.66;5005693;28;20034;-71
2022/11/24 00:45:43;;;;;;;17.58;7.45;;;;;;;5.44;56.55;100162.03;5005126;28;20075;-72
2022/11/24 00:48:09;;;;;;;16.60;8.02;;;;;;;5.34;56.52;100166.63;4991402;28;20103;-72
2022/11/24 00:50:35;;;;;;;11.07;7.10;;;;;;;4.89;57.97;100158.44;5008375;28;20045;-72
2022/11/24 00:53:03;;;;;;;13.35;7.45;;;;;;;5.34;56.19;100163.19;4988020;28;20670;-69
2022/11/24 00:55:30;;;;;;;13.50;8.20;;;;;;;5.16;56.66;100165.41;4989765;28;20116;-69
2022/11/24 00:57:56;;;;;;;15.43;7.88;;;;;;;5.16;56.37;100162.81;5004386;28;20474;-69
2022/11/24 01:00:21;;;;;;;10.48;6.28;;;;;;;5.18;56.27;100171.41;4992497;28;20113;-68
2022/11/24 01:02:47;;;;;;;9.70;6.55;;;;;;;5.16;56.85;100161.97;4988299;28;20112;-69
2022/11/24 01:05:12;;;;;;;14.98;7.28;;;;;;;5.21;56.69;100173.94;5008334;28;20829;-69
2022/11/24 01:07:38;;;;;;;13.75;6.93;;;;;;;5.17;57.20;100176.66;5001799;28;20713;-69
2022/11/24 01:10:04;;;;;;;16.10;8.43;;;;;;;5.31;56.80;100177.09;5005779;28;20057;-69
2022/11/24 01:12:29;;;;;;;14.93;6.60;;;;;;;5.12;57.20;100173.31;4987568;28;20253;-69
2022/11/24 01:14:55;;;;;;;13.50;7.22;;;;;;;5.34;56.49;100176.13;4989437;28;20097;-69
2022/11/24 01:17:20;;;;;;;14.55;7.05;;;;;;;5.37;56.21;100176.03;4972405;28;20085;-69
2022/11/24 01:19:49;;;;;;;14.18;6.82;;;;;;;5.33;55.99;100179.63;5005009;28;20021;-70
2022/11/24 01:22:15;;;;;;;16.15;7.00;;;;;;;5.28;56.38;100184.09;4972905;28;20127;-70
2022/11/24 01:24:40;;;;;;;17.10;7.85;;;;;;;5.11;56.69;100179.41;4991842;28;20045;-67
2022/11/24 01:27:06;;;;;;;14.98;7.72;;;;;;;5.05;56.70;100185.59;5006868;28;20095;-69
2022/11/24 01:29:31;;;;;;;18.20;7.85;;;;;;;4.99;56.82;100186.63;5009256;28;20055;-73
2022/11/24 01:31:57;;;;;;;14.95;6.78;;;;;;;5.04;56.25;100192.53;5001899;28;20157;-74
2022/11/24 01:34:22;;;;;;;14.15;6.78;;;;;;;4.87;57.08;100191.25;4989723;28;20462;-72
2022/11/24 01:36:48;;;;;;;13.63;7.18;;;;;;;5.06;56.66;100197.66;5003975;28;20490;-72
2022/11/24 01:39:13;;;;;;;20.40;7.70;;;;;;;4.91;57.36;100188.56;5005719;28;20041;-72
2022/11/24 01:41:39;;;;;;;16.55;6.82;;;;;;;5.18;56.52;100199.06;5003160;28;20093;-72
2022/11/24 01:44:27;;;;;;;16.52;6.60;;;;;;;5.29;56.51;100193.56;5005644;28;20436;-72
2022/11/24 01:47:19;;;;;;;15.18;6.47;;;;;;;5.32;56.42;100199.50;4975133;28;20041;-71
2022/11/24 01:49:50;;;;;;;12.70;6.97;;;;;;;5.29;56.64;100207.38;5004477;28;20202;-71
2022/11/24 01:52:26;;;;;;;15.20;6.35;;;;;;;5.37;56.27;100208.00;4990052;28;20343;-72
2022/11/24 01:54:55;;;;;;;13.98;6.55;;;;;;;5.41;56.04;100198.38;4972227;28;20384;-72
2022/11/24 01:57:29;;;;;;;14.07;7.10;;;;;;;5.45;56.14;100197.41;4993163;28;20224;-72
2022/11/24 02:00:04;;;;;;;11.25;6.03;;;;;;;5.41;56.08;100200.97;5003390;28;20025;-69
2022/11/24 02:02:40;;;;;;;14.82;6.93;;;;;;;5.44;56.44;100213.88;4990234;28;20049;-68
2022/11/24 02:05:37;;;;;;;12.52;6.55;;;;;;;5.52;56.13;100224.84;5003407;28;20038;-68
2022/11/24 02:08:06;;;;;;;14.55;7.30;;;;;;;5.45;56.23;100233.69;5007697;28;20033;-69
2022/11/24 02:10:32;;;;;;;13.65;6.13;;;;;;;5.59;56.02;100230.69;4986601;28;20053;-69
2022/11/24 02:12:59;;;;;;;15.00;6.60;;;;;;;5.47;56.45;100237.09;5004690;28;20291;-69
2022/11/24 02:15:25;;;;;;;16.55;6.72;;;;;;;5.60;56.14;100235.00;5004667;28;20112;-68
2022/11/24 02:17:50;;;;;;;11.27;6.47;;;;;;;5.46;56.72;100238.00;5002677;28;20037;-68
2022/11/24 02:20:17;;;;;;;14.48;6.20;;;;;;;5.55;56.57;100250.69;5005019;28;20458;-68
2022/11/24 02:22:53;;;;;;;13.05;7.22;;;;;;;5.24;57.14;100253.31;4987479;28;20453;-69
2022/11/24 02:25:41;;;;;;;18.35;6.70;;;;;;;5.43;57.11;100251.03;4988134;28;20036;-67
2022/11/24 02:28:14;;;;;;;14.93;6.50;;;;;;;4.95;58.89;100246.31;5005023;28;20036;-68
2022/11/24 02:30:41;;;;;;;23.83;7.63;;;;;;;4.84;58.70;100244.81;4989561;28;20077;-69
2022/11/24 02:33:10;;;;;;;26.05;8.38;;;;;;;5.29;57.48;100251.41;5007747;28;20483;-69
2022/11/24 02:35:35;;;;;;;16.05;7.35;;;;;;;5.09;58.02;100251.97;4999511;28;20048;-68
2022/11/24 02:38:01;;;;;;;16.75;7.07;;;;;;;5.25;57.00;100253.25;4977593;28;20090;-68
2022/11/24 02:40:29;;;;;;;20.27;6.00;;;;;;;5.06;57.70;100249.47;4992955;28;20312;-75
2022/11/24 02:42:59;;;;;;;15.55;6.45;;;;;;;4.91;57.90;100255.06;5004250;28;20285;-74
2022/11/24 02:45:25;;;;;;;18.52;7.20;;;;;;;5.08;57.45;100258.06;4982768;28;20119;-69
2022/11/24 02:47:50;;;;;;;20.65;7.18;;;;;;;5.08;57.09;100255.47;5003413;28;20294;-68
2022/11/24 02:50:16;;;;;;;17.52;7.45;;;;;;;4.72;58.01;100252.91;5002513;28;20778;-68
2022/11/24 02:52:44;;;;;;;14.95;6.22;;;;;;;4.93;57.22;100256.72;4991735;28;20807;-68
2022/11/24 02:55:09;;;;;;;16.45;5.03;;;;;;;4.93;56.90;100263.63;5002977;28;20057;-69
2022/11/24 02:57:35;;;;;;;16.05;6.70;;;;;;;4.81;57.13;100265.63;4992873;28;20474;-68
2022/11/24 03:00:00;;;;;;;16.05;5.45;;;;;;;4.84;57.06;100262.09;5001376;28;20026;-68
2022/11/24 03:02:26;;;;;;;13.77;5.55;;;;;;;4.78;56.86;100260.50;4992318;28;20533;-68
2022/11/24 03:04:51;;;;;;;17.75;5.57;;;;;;;4.74;56.69;100269.25;4990963;28;20455;-68
2022/11/24 03:07:16;;;;;;;19.20;6.00;;;;;;;4.70;56.98;100267.63;5004959;28;20152;-68
2022/11/24 03:09:42;;;;;;;16.58;6.22;;;;;;;4.64;56.59;100273.81;5002986;28;20458;-69
2022/11/24 03:12:07;;;;;;;15.25;6.35;;;;;;;4.28;58.59;100277.28;4986991;28;20050;-69
2022/11/24 03:14:33;;;;;;;21.40;6.03;;;;;;;4.39;57.97;100291.69;4976028;28;20041;-70
2022/11/24 03:16:58;;;;;;;10.40;5.63;;;;;;;4.44;57.68;100281.22;5003375;28;20041;-70
2022/11/24 03:19:24;;;;;;;11.10;5.03;;;;;;;4.49;57.41;100273.34;5006945;28;20080;-69
2022/11/24 03:21:49;;;;;;;11.80;5.43;;;;;;;4.41;57.44;100287.31;4999912;28;20051;-69
2022/11/24 03:24:14;;;;;;;11.57;5.15;;;;;;;4.40;56.87;100285.59;5001566;28;20056;-70
2022/11/24 03:26:41;;;;;;;12.30;5.55;;;;;;;4.39;57.11;100289.09;5002919;28;20045;-73
2022/11/24 03:29:07;;;;;;;15.07;5.32;;;;;;;4.36;57.22;100288.28;4986957;28;20310;-73
2022/11/24 03:31:33;;;;;;;18.73;6.28;;;;;;;4.16;58.10;100287.03;4970423;28;20361;-73
2022/11/24 03:33:58;;;;;;;11.30;5.18;;;;;;;4.27;57.56;100296.28;5020102;28;20033;-79
2022/11/24 03:36:24;;;;;;;14.25;5.10;;;;;;;4.28;56.96;100295.41;5024428;28;20104;-79
2022/11/24 03:38:49;;;;;;;14.88;4.70;;;;;;;4.26;56.78;100289.41;5020616;28;20033;-78
2022/11/24 03:41:17;;;;;;;13.02;4.80;;;;;;;4.27;57.21;100291.09;5005853;28;21069;-79
2022/11/24 03:43:43;;;;;;;18.73;4.30;;;;;;;4.14;57.94;100299.16;5006844;28;20101;-78
2022/11/24 03:46:08;;;;;;;19.38;5.10;;;;;;;4.16;57.62;100301.69;5013350;28;20038;-77
2022/11/24 03:48:34;;;;;;;18.23;5.10;;;;;;;4.19;57.81;100309.41;5025149;28;20053;-78
2022/11/24 03:51:01;;;;;;;19.10;5.38;;;;;;;4.07;58.36;100307.06;4989059;28;20054;-72
2022/11/24 03:53:29;;;;;;;17.77;4.47;;;;;;;4.10;58.06;100318.22;4996065;28;20060;-72
2022/11/24 03:55:55;;;;;;;15.23;4.80;;;;;;;4.15;58.01;100313.78;5009362;28;20176;-71
2022/11/24 03:58:20;;;;;;;14.02;4.07;;;;;;;4.20;57.46;100322.28;5010856;28;20123;-72
2022/11/24 04:00:51;;;;;;;13.00;4.03;;;;;;;4.12;57.61;100321.63;5005588;28;20115;-71
2022/11/24 04:03:16;;;;;;;15.32;6.03;;;;;;;4.15;57.42;100324.13;4996257;28;20068;-71
2022/11/24 04:05:42;;;;;;;12.40;5.10;;;;;;;4.15;57.27;100316.38;5008792;28;20068;-72
2022/11/24 04:08:08;;;;;;;17.67;4.03;;;;;;;4.04;58.27;100327.84;4996095;28;20026;-71
2022/11/24 04:10:35;;;;;;;9.23;4.07;;;;;;;4.07;57.96;100327.75;5007685;28;20048;-72
2022/11/24 04:13:02;;;;;;;13.20;3.42;;;;;;;4.00;58.30;100335.63;5010111;28;20120;-72
2022/11/24 04:15:28;;;;;;;11.88;3.00;;;;;;;4.11;57.63;100345.75;5007837;28;20060;-73
2022/11/24 04:17:54;;;;;;;14.02;3.17;;;;;;;4.10;57.38;100344.06;5009656;28;20034;-72
2022/11/24 04:20:19;;;;;;;12.73;5.00;;;;;;;4.05;57.63;100345.03;4989159;28;20129;-71
2022/11/24 04:22:45;;;;;;;10.27;3.72;;;;;;;3.84;58.32;100352.38;5011822;28;20033;-75
2022/11/24 04:25:11;;;;;;;9.77;3.83;;;;;;;3.44;60.01;100353.13;4979420;28;20033;-70
2022/11/24 04:27:36;;;;;;;7.57;3.72;;;;;;;3.90;58.58;100367.75;4978667;28;20848;-68
2022/11/24 04:30:06;;;;;;;15.55;3.30;;;;;;;3.97;58.11;100358.16;5009186;28;20792;-68
2022/11/24 04:32:34;;;;;;;20.27;3.83;;;;;;;3.97;58.09;100361.56;4998402;28;20065;-68
2022/11/24 04:35:00;;;;;;;9.30;3.28;;;;;;;3.99;58.26;100364.97;4997048;28;20033;-68
2022/11/24 04:37:25;;;;;;;13.05;3.90;;;;;;;4.03;57.96;100368.38;5007554;28;20041;-68
2022/11/24 04:39:51;;;;;;;10.60;2.50;;;;;;;3.99;58.27;100366.72;5006620;28;20041;-68
2022/11/24 04:42:16;;;;;;;14.60;3.80;;;;;;;3.96;58.35;100374.53;4992001;28;20077;-66
2022/11/24 04:44:41;;;;;;;10.63;3.80;;;;;;;4.01;58.03;100370.13;4987746;28;20037;-68
2022/11/24 04:47:15;;;;;;;14.43;4.20;;;;;;;3.90;58.50;100372.94;4951960;28;20088;-68
2022/11/24 04:49:41;;;;;;;14.90;3.90;;;;;;;3.68;58.98;100376.81;5006744;28;20033;-68
2022/11/24 04:52:06;;;;;;;11.07;3.45;;;;;;;3.84;58.07;100378.22;5004092;28;20029;-67
2022/11/24 04:54:31;;;;;;;15.57;3.80;;;;;;;3.88;57.88;100379.03;4989263;28;20041;-68
2022/11/24 04:56:57;;;;;;;14.18;3.00;;;;;;;3.79;58.62;100382.63;5004819;28;20045;-67
2022/11/24 04:59:23;;;;;;;17.70;3.65;;;;;;;3.86;58.01;100376.47;4994389;28;20037;-68
2022/11/24 05:01:48;;;;;;;13.55;3.65;;;;;;;3.93;57.99;100388.38;4994086;28;20253;-66
2022/11/24 05:04:14;;;;;;;8.82;3.17;;;;;;;3.86;57.92;100386.78;5007408;28;20064;-67
2022/11/24 05:06:40;;;;;;;16.85;3.45;;;;;;;3.74;58.61;100393.06;4998321;28;20306;-67
2022/11/24 05:09:07;;;;;;;11.50;4.05;;;;;;;3.91;58.35;100397.88;5010066;28;20041;-67
2022/11/24 05:11:32;;;;;;;14.75;3.38;;;;;;;3.84;58.32;100404.06;5004873;28;20046;-66
2022/11/24 05:13:58;;;;;;;18.92;3.03;;;;;;;3.78;59.07;100399.88;4978268;28;20033;-67
2022/11/24 05:16:24;;;;;;;14.95;3.10;;;;;;;4.00;58.23;100405.47;5004791;28;20164;-68
2022/11/24 05:18:49;;;;;;;16.27;3.75;;;;;;;3.91;58.47;100421.16;4994944;28;20847;-69
2022/11/24 05:21:15;;;;;;;11.60;3.13;;;;;;;4.12;58.19;100430.25;4985003;28;20588;-69
2022/11/24 05:23:40;;;;;;;9.73;2.95;;;;;;;3.87;59.29;100429.00;4994303;28;20277;-68
2022/11/24 05:26:06;;;;;;;16.60;2.38;;;;;;;3.88;59.93;100431.56;5008156;28;20312;-68
2022/11/24 05:28:32;;;;;;;8.02;2.78;;;;;;;4.14;59.27;100430.19;4977055;28;20052;-68
2022/11/24 05:30:59;;;;;;;12.18;3.55;;;;;;;4.39;58.74;100433.16;4987377;28;20873;-68
2022/11/24 05:33:27;;;;;;;10.00;2.50;;;;;;;4.55;58.29;100434.50;4989631;28;20647;-68
2022/11/24 05:35:53;;;;;;;19.02;3.42;;;;;;;4.52;57.97;100439.75;5003904;28;20247;-70
2022/11/24 05:38:21;;;;;;;12.23;3.67;;;;;;;4.11;59.46;100449.22;4991983;28;20064;-70
2022/11/24 05:40:47;;;;;;;9.18;1.63;;;;;;;4.56;58.78;100440.53;4994077;28;20126;-70
2022/11/24 05:43:14;;;;;;;8.73;2.10;;;;;;;4.59;58.58;100443.91;5008370;28;20029;-70
2022/11/24 05:45:40;;;;;;;11.20;2.05;;;;;;;4.42;59.52;100443.41;4986905;28;20041;-69
2022/11/24 05:48:08;;;;;;;16.98;1.85;;;;;;;4.79;58.42;100443.47;5005389;28;20026;-72
2022/11/24 05:50:34;;;;;;;9.18;2.17;;;;;;;4.68;58.34;100444.59;5003865;28;20049;-71
2022/11/24 05:53:04;;;;;;;8.98;1.63;;;;;;;4.77;58.27;100446.97;5006214;28;20056;-70
2022/11/24 05:55:30;;;;;;;13.60;2.55;;;;;;;4.81;58.21;100438.22;5004454;28;20088;-67
2022/11/24 05:57:58;;;;;;;6.95;1.77;;;;;;;4.77;57.93;100454.75;4994796;28;20128;-69
2022/11/24 06:00:24;;;;;;;11.93;1.85;;;;;;;4.54;58.46;100463.88;4974479;28;20057;-69
2022/11/24 06:02:49;;;;;;;13.50;2.25;;;;;;;4.51;58.62;100457.91;4970458;28;20036;-68
2022/11/24 06:05:14;;;;;;;10.90;2.20;;;;;;;4.57;58.41;100456.03;5004950;28;20464;-67
2022/11/24 06:07:43;;;;;;;12.63;1.77;;;;;;;4.58;58.57;100459.47;5008416;28;20120;-70
2022/11/24 06:10:08;;;;;;;14.13;2.30;;;;;;;4.61;58.90;100468.03;4995249;28;20033;-67
2022/11/24 06:12:34;;;;;;;10.25;1.58;;;;;;;4.79;57.85;100468.50;5007205;28;20857;-65
2022/11/24 06:15:00;;;;;;;9.38;1.95;;;;;;;4.76;57.28;100472.00;5004099;28;20052;-69
2022/11/24 06:17:26;;;;;;;7.22;1.58;;;;;;;4.61;57.56;100472.38;4993228;28;20053;-69
2022/11/24 06:19:51;;;;;;;14.88;2.92;;;;;;;4.54;57.53;100479.41;5003724;28;20030;-68
2022/11/24 06:22:18;;;;;;;13.30;2.10;;;;;;;4.50;57.67;100477.75;4987540;28;20469;-69
2022/11/24 06:24:45;;;;;;;8.50;0.90;;;;;;;4.48;57.23;100474.34;4990499;28;20025;-68
2022/11/24 06:27:11;;;;;;;9.18;1.95;;;;;;;4.45;57.26;100478.72;5008036;28;20149;-68
2022/11/24 06:29:37;;;;;;;10.40;1.77;;;;;;;4.39;57.34;100484.91;4999707;28;20041;-68
2022/11/24 06:32:03;;;;;;;9.45;2.67;;;;;;;4.30;58.05;100491.09;5005388;28;20138;-68
2022/11/24 06:34:29;;;;;;;7.47;1.60;;;;;;;4.35;57.54;100489.28;5004613;28;20088;-68
2022/11/24 06:36:54;;;;;;;12.70;1.70;;;;;;;4.37;57.36;100491.84;5004212;28;20510;-67
2022/11/24 06:39:20;;;;;;;7.30;1.45;;;;;;;4.35;57.15;100485.84;4989201;28;20687;-68
2022/11/24 06:41:48;;;;;;;8.90;1.90;;;;;;;4.10;57.76;100498.41;5005635;28;20080;-68
2022/11/24 06:44:13;;;;;;;13.70;1.60;;;;;;;4.02;58.36;100506.28;5005075;28;20069;-68
2022/11/24 06:46:38;;;;;;;11.93;2.17;;;;;;;4.01;57.98;100509.78;5001047;28;20562;-67
2022/11/24 06:49:04;;;;;;;6.38;1.75;;;;;;;4.06;57.63;100517.44;4986543;28;20708;-68
2022/11/24 06:51:29;;;;;;;6.28;1.55;;;;;;;4.05;57.49;100518.31;5003724;28;20033;-67
2022/11/24 06:53:55;;;;;;;11.35;2.05;;;;;;;4.00;57.45;100519.25;4994201;28;21550;-68
2022/11/24 06:56:21;;;;;;;11.63;2.50;;;;;;;3.94;57.08;100524.56;5001103;28;20053;-67
2022/11/24 06:58:49;;;;;;;7.97;3.38;;;;;;;3.85;57.60;100540.22;4992341;28;20071;-68
2022/11/24 07:01:26;;;;;;;6.28;1.90;;;;;;;3.82;57.81;100542.84;5001340;28;20493;-68
2022/11/24 07:03:52;;;;;;;9.73;1.65;;;;;;;3.83;57.24;100542.00;4988160;28;20029;-66
2022/11/24 07:06:19;;;;;;;12.77;1.60;;;;;;;3.78;56.98;100551.53;5002955;28;20046;-68
2022/11/24 07:08:46;;;;;;;11.10;1.42;;;;;;;3.69;57.44;100557.69;5006361;28;20037;-68
2022/11/24 07:11:14;;;;;;;13.45;1.50;;;;;;;3.63;57.84;100567.28;5003872;28;20955;-67
2022/11/24 07:13:41;;;;;;;4.63;1.23;;;;;;;3.65;57.42;100570.69;5008649;28;20501;-68
2022/11/24 07:16:19;;;;;;;14.27;2.15;;;;;;;3.35;59.65;100576.31;5006616;28;20543;-67
2022/11/24 07:18:46;;;;;;;7.55;1.35;;;;;;;3.66;57.93;100585.34;5007934;28;20025;-68
2022/11/24 07:21:12;;;;;;;9.13;1.25;;;;;;;3.65;58.04;100584.50;5011990;28;20312;-68
2022/11/24 07:23:38;;;;;;;6.38;1.58;;;;;;;3.67;57.76;100580.16;5008893;28;20045;-70
2022/11/24 07:26:05;;;;;;;13.07;0.90;;;;;;;3.65;58.07;100588.78;5002843;28;20050;-70
2022/11/24 07:28:31;;;;;;;11.73;1.15;;;;;;;3.55;58.19;100588.09;5009207;28;20041;-68
2022/11/24 07:30:57;;;;;;;9.13;1.45;;;;;;;3.72;58.26;100588.69;4989493;28;20172;-67
2022/11/24 07:33:26;;;;;;;15.18;1.48;;;;;;;3.66;58.23;100595.69;5010026;28;20040;-68
2022/11/24 07:35:52;;;;;;;19.02;1.75;;;;;;;3.67;58.85;100602.56;5004895;28;20054;-69
2022/11/24 07:38:17;;;;;;;5.65;1.25;;;;;;;3.83;58.37;100609.22;4991130;28;20049;-67
2022/11/24 07:40:43;;;;;;;14.07;1.23;;;;;;;3.88;58.38;100602.22;4987220;28;20049;-68
2022/11/24 07:43:08;;;;;;;12.80;1.95;;;;;;;3.88;57.98;100611.72;4996700;28;20030;-69
2022/11/24 07:45:35;;;;;;;15.38;1.15;;;;;;;3.85;58.64;100612.63;4975143;28;20033;-68
2022/11/24 07:48:01;;;;;;;14.02;1.17;;;;;;;4.05;58.54;100619.19;5011163;28;20040;-68
2022/11/24 07:50:27;;;;;;;15.10;2.42;;;;;;;4.12;58.23;100623.34;4988001;28;20141;-68
2022/11/24 07:52:53;;;;;;;11.73;2.22;;;;;;;4.17;57.96;100624.16;5003762;28;20383;-69
2022/11/24 07:55:18;;;;;;;19.17;5.78;;;;;;;4.27;58.11;100625.69;5007108;28;20742;-68
2022/11/24 07:57:44;;;;;;;20.90;4.05;;;;;;;4.12;58.28;100626.81;4990841;28;20040;-68
2022/11/24 08:00:10;;;;;;;16.25;2.15;;;;;;;4.36;57.98;100637.59;5004316;28;20269;-68
2022/11/24 08:02:35;;;;;;;20.90;2.00;;;;;;;4.66;58.12;100635.34;4987077;28;20046;-69
2022/11/24 08:05:01;;;;;;;8.73;1.58;;;;;;;5.06;57.66;100630.25;4992945;28;20041;-68
2022/11/24 08:07:31;;;;;;;9.65;0.90;;;;;;;5.40;56.93;100637.31;5008899;28;20088;-69
2022/11/24 08:09:57;;;;;;;15.45;1.50;;;;;;;5.88;55.93;100644.81;4991231;28;20355;-68
2022/11/24 08:12:22;;;;;;;9.35;1.05;;;;;;;6.31;54.82;100638.63;5006595;28;20195;-68
2022/11/24 08:14:49;;;;;;;11.82;2.22;;;;;;;6.27;54.53;100637.78;4994933;28;20502;-68
2022/11/24 08:17:18;;;;;;;12.85;1.35;;;;;;;6.27;54.06;100644.72;4996057;28;20049;-69
2022/11/24 08:19:43;;;;;;;11.23;1.90;;;;;;;5.81;54.42;100645.84;5009596;28;20035;-68
2022/11/24 08:22:09;;;;;;;10.63;1.58;;;;;;;5.89;54.85;100646.53;5009709;28;20053;-68
2022/11/24 08:24:35;;;;;;;7.55;1.33;;;;;;;5.80;55.12;100647.59;5006536;28;20437;-68
2022/11/24 08:27:00;;;;;;;14.13;1.65;;;;;;;5.71;55.54;100652.16;4993281;28;20054;-70
2022/11/24 08:29:31;;;;;;;13.20;1.70;;;;;;;5.34;56.18;100646.06;4996807;28;20108;-68
2022/11/24 08:31:56;;;;;;;6.20;1.27;;;;;;;4.94;57.06;100651.22;5009087;28;20053;-69
2022/11/24 08:34:23;;;;;;;10.32;1.65;;;;;;;5.11;57.28;100643.97;5007182;28;20658;-68
2022/11/24 08:36:50;;;;;;;16.02;1.52;;;;;;;5.50;56.70;100650.91;4990764;28;20116;-68
2022/11/24 08:39:19;;;;;;;12.20;1.38;;;;;;;5.97;55.70;100655.00;5007570;28;20099;-70
2022/11/24 08:41:45;;;;;;;11.65;1.63;;;;;;;6.72;54.35;100657.41;5005224;28;20932;-68
2022/11/24 08:44:13;;;;;;;10.05;1.73;;;;;;;7.08;53.09;100652.09;5010032;28;20038;-68
2022/11/24 08:46:41;;;;;;;15.02;1.67;;;;;;;7.41;52.40;100659.78;4973693;28;20067;-67
2022/11/24 08:49:07;;;;;;;10.68;2.03;;;;;;;7.01;52.51;100672.19;5008064;28;20037;-69
2022/11/24 08:51:33;;;;;;;7.95;1.52;;;;;;;6.91;53.18;100669.00;5003999;28;20060;-69
2022/11/24 08:54:00;;;;;;;7.57;1.95;;;;;;;7.34;51.83;100664.31;4989044;28;20132;-69
2022/11/24 08:56:27;;;;;;;4.57;0.93;;;;;;;6.56;51.92;100679.50;5003905;28;20434;-70
2022/11/24 08:58:53;;;;;;;8.45;1.15;;;;;;;7.18;51.76;100671.72;5006809;28;20086;-68
2022/11/24 09:01:19;;;;;;;7.75;1.20;;;;;;;7.15;51.42;100665.75;5006157;28;20048;-68
2022/11/24 09:03:47;;;;;;;8.55;1.63;;;;;;;6.24;52.36;100679.41;4989705;28;20046;-69
2022/11/24 09:06:13;;;;;;;15.48;1.55;;;;;;;6.15;53.39;100683.97;4990742;28;20462;-70
2022/11/24 09:08:38;;;;;;;8.52;1.33;;;;;;;6.02;53.56;100683.44;5006801;28;20128;-68
2022/11/24 09:11:09;;;;;;;9.27;1.13;;;;;;;6.14;54.10;100690.06;5005484;28;20053;-68
2022/11/24 09:13:35;;;;;;;9.07;1.35;;;;;;;6.12;53.81;100697.00;5008525;28;20042;-66
2022/11/24 09:16:06;;;;;;;7.10;1.40;;;;;;;6.63;52.56;100697.47;5008393;28;20050;-67
2022/11/24 09:18:32;;;;;;;10.57;1.23;;;;;;;6.71;52.39;100694.69;5004261;28;20064;-70
2022/11/24 09:21:17;;;;;;;9.80;1.60;;;;;;;7.43;51.90;100692.66;5001590;28;20053;-67
2022/11/24 09:23:44;;;;;;;20.38;2.95;;;;;;;7.53;50.13;100691.47;5005907;28;20037;-68
2022/11/24 09:26:12;;;;;;;15.55;2.75;;;;;;;7.49;50.95;100702.03;5006595;28;20037;-67
2022/11/24 09:28:38;;;;;;;10.32;1.70;;;;;;;7.90;50.26;100702.53;4986652;28;20413;-67
2022/11/24 09:31:09;;;;;;;7.13;1.45;;;;;;;8.15;49.56;100706.03;5005510;28;20095;-67
2022/11/24 09:33:36;;;;;;;10.53;1.57;;;;;;;6.91;51.98;100702.78;5005860;28;20066;-67
2022/11/24 09:36:02;;;;;;;13.20;2.22;;;;;;;7.70;50.79;100714.41;5009660;28;20299;-66
2022/11/24 09:38:28;;;;;;;19.77;1.90;;;;;;;6.78;52.03;100714.41;5005514;28;20037;-66
2022/11/24 09:40:54;;;;;;;16.25;2.83;;;;;;;8.04;50.82;100712.50;5003686;28;20982;-68
2022/11/24 09:43:55;;;;;;;16.13;2.85;;;;;;;8.22;49.42;100718.88;5005520;28;20080;-68
2022/11/24 09:46:45;;;;;;;12.02;1.98;;;;;;;7.65;50.70;100711.09;4985950;28;20041;-67
2022/11/24 09:49:29;;;;;;;7.35;1.42;;;;;;;7.06;52.08;100717.09;4993080;28;20030;-67
2022/11/24 09:51:55;;;;;;;7.38;1.55;;;;;;;7.74;49.94;100731.63;4981309;28;20053;-65
2022/11/24 09:54:27;;;;;;;9.68;1.50;;;;;;;7.18;51.30;100725.47;4975713;28;20045;-65
2022/11/24 09:56:57;;;;;;;13.38;2.72;;;;;;;7.49;50.20;100722.84;5002574;28;20045;-66
2022/11/24 09:59:24;;;;;;;8.52;1.75;;;;;;;7.98;51.04;100725.69;5005245;28;20406;-66
2022/11/24 10:01:55;;;;;;;15.63;1.65;;;;;;;8.01;49.95;100731.66;4992565;28;20052;-66
2022/11/24 10:04:27;;;;;;;15.60;2.90;;;;;;;7.56;50.39;100732.19;5007670;28;20045;-66
2022/11/24 10:07:01;;;;;;;14.77;2.13;;;;;;;7.93;49.91;100731.06;4978841;28;20041;-66
2022/11/24 10:10:06;;;;;;;9.80;2.38;;;;;;;8.35;50.44;100738.38;4991434;28;20428;-67
2022/11/24 10:12:40;;;;;;;10.55;1.80;;;;;;;8.12;50.36;100742.59;4983709;28;20099;-66
2022/11/24 10:15:32;;;;;;;8.45;1.70;;;;;;;7.71;51.44;100751.66;4986856;28;20117;-66
2022/11/24 10:18:22;;;;;;;14.10;3.58;;;;;;;8.00;50.05;100747.31;4979943;28;20119;-65
2022/11/24 10:21:32;;;;;;;9.13;2.90;;;;;;;8.52;49.51;100754.31;4982485;28;20108;-66
2022/11/24 10:24:26;;;;;;;13.02;2.38;;;;;;;7.56;51.57;100752.13;4982715;28;20336;-66
2022/11/24 10:27:20;;;;;;;9.90;2.33;;;;;;;8.08;50.47;100761.81;4969964;28;20378;-67
2022/11/24 10:29:49;;;;;;;18.52;2.63;;;;;;;7.41;51.54;100758.59;4982804;28;20067;-67
2022/11/24 10:32:22;;;;;;;10.27;2.20;;;;;;;7.93;50.37;100770.09;4972046;28;20050;-66
2022/11/24 10:34:51;;;;;;;11.35;2.35;;;;;;;7.29;52.51;100775.41;4987230;28;20081;-66
2022/11/24 10:37:35;;;;;;;10.32;2.75;;;;;;;7.40;52.26;100775.06;4985420;28;20129;-67
2022/11/24 10:40:07;;;;;;;10.15;1.98;;;;;;;7.43;51.82;100777.63;4984150;28;20038;-65
2022/11/24 10:42:35;;;;;;;6.53;2.20;;;;;;;6.84;53.09;100792.19;5002277;28;20145;-68
2022/11/24 10:45:11;;;;;;;11.40;2.97;;;;;;;7.56;52.07;100793.72;4987363;28;20037;-69
2022/11/24 10:47:37;;;;;;;11.68;3.38;;;;;;;7.47;51.66;100800.03;4983404;28;20041;-65
2022/11/24 10:50:05;;;;;;;15.57;2.42;;;;;;;7.75;51.29;100797.50;5004212;28;20037;-67
2022/11/24 10:52:41;;;;;;;6.38;2.00;;;;;;;8.26;50.55;100799.44;4977017;28;20046;-69
2022/11/24 10:55:07;;;;;;;9.88;1.67;;;;;;;8.04;50.50;100801.84;4977883;28;20484;-67
2022/11/24 10:57:38;;;;;;;12.50;2.38;;;;;;;6.99;52.08;100810.84;4988893;28;20037;-69
2022/11/24 11:00:24;;;;;;;8.85;1.90;;;;;;;7.76;51.24;100806.16;4989639;28;20088;-65
2022/11/24 11:03:10;;;;;;;8.73;2.55;;;;;;;8.12;50.43;100810.28;4988373;28;20348;-67
2022/11/24 11:05:41;;;;;;;8.13;2.28;;;;;;;8.08;50.33;100808.66;5003129;28;20095;-67
2022/11/24 11:08:13;;;;;;;8.73;1.70;;;;;;;8.42;50.15;100811.97;4984684;28;20037;-68
2022/11/24 11:10:40;;;;;;;10.07;2.13;;;;;;;7.75;50.70;100802.72;4994704;28;20113;-66
2022/11/24 11:13:28;;;;;;;9.25;1.67;;;;;;;8.32;49.75;100809.66;4976712;28;20081;-66
2022/11/24 11:15:55;;;;;;;8.77;2.72;;;;;;;8.73;48.73;100807.47;4985668;28;20046;-66
2022/11/24 11:18:24;;;;;;;10.68;1.80;;;;;;;9.04;48.04;100810.81;5005005;28;20079;-67
2022/11/24 11:21:00;;;;;;;9.18;1.65;;;;;;;8.87;48.45;100814.00;4964521;28;20819;-65
2022/11/24 11:23:32;;;;;;;13.55;2.40;;;;;;;8.54;49.39;100815.03;4986854;28;20418;-66
2022/11/24 11:26:21;;;;;;;10.82;1.73;;;;;;;8.49;49.12;100822.13;5003134;28;20056;-67
2022/11/24 11:29:12;;;;;;;6.82;2.42;;;;;;;8.64;48.96;100832.97;4986708;28;20094;-67
2022/11/24 11:31:39;;;;;;;9.25;1.67;;;;;;;8.97;48.64;100842.31;4988155;28;20042;-68
2022/11/24 11:34:08;;;;;;;16.92;2.08;;;;;;;8.98;48.12;100838.81;5005510;28;20462;-67